Concord, CA (94518)

8:31 PM PDT on April 20, 2015 (GMT -0700)
Detroit Ave | | Change Station
CLOSE
Current Station
Personal Weather Station
Location: Concord, CA
Elevation: 50 ft
Nearby Weather Stations

Elev 50 ft 37.97 °N, 122.04 °W | Updated 33 seconds ago

Partly Cloudy
Partly Cloudy
56.4 °F
Feels Like 56.4 °F
N
2.0
Wind Variable Wind from WSW
Gusts 3.0 mph

Today
High -- | Low -- °F
--% Chance of Precip.
Yesterday
High -- | Low -- °F
Precip. -- in
6:26 AM 7:48 PM
Waxing Crescent, 8% visible
Pressure 29.78 in
Visibility 10.0 miles
Clouds Few 2000 ft
Mostly Cloudy 15000 ft
Dew Point 47 °F
Humidity 71%
Rainfall 0.00 in
Snow Depth Not available.
UV 0 out of 12
Pollen 8.00 out of 12
Air Quality Not available.
Flu Activity Sporadic
METAR KCCR 210253Z 25010KT 10SM FEW020 BKN150 14/09 A2982 RMK AO2 SLP085 T01440089 $

More Conditions Fewer Conditions

Pressure 29.78 in
Visibility 10.0 miles
Clouds Few 2000 ft
Mostly Cloudy 15000 ft
Dew Point 47 °F
Humidity 71%
Rainfall 0.00 in
Snow Depth Not available.
UV 0 out of 12
Pollen 8.00 out of 12
Air Quality Not available.
Flu Activity Sporadic
METAR KCCR 210253Z 25010KT 10SM FEW020 BKN150 14/09 A2982 RMK AO2 SLP085 T01440089 $

More Conditions Fewer Conditions

10-Day Weather Forecast

Almanac

Astronomy

Apr. 20, 2015 Rise Set
Actual Time
Civil Twilight
Nautical Twilight
Astronomical Twilight
Moon
Length of Visible Light
Length of Day
Tomorrow will be .
, % of the Moon is Illuminated

Today's Extremes

State Highs State Lows

Community

WunderPhotos

Upload Photos

1,815,296 photos uploaded!

WunderBlogs® & News

Nearby

Air Quality

  Air Quality AQ Index Pollutant
Not available.

Snow Depth

Station Depth Elevation

Earthquake Activity

City Distance Mag. Time & Date
Minimum magnitude displayed is 2.5.

Coastal Water Temperatures

Place Temperature

Stations

Nearby Weather Stations

Station Location Temp. Windchill Dew Point Humidity Wind Precip. Elev Updated Type